Pagrindinis puslapis
METAR-TAF:

METAR-TAF

Oro uostai :

Cape Lisburne, Aliaska, Jungtinės Amerikos Valstijos

platuma: 68-53N, ilguma: 166-06W, Aukštis: 4 m

Dabartinis oras

Ataskaita buvo paskelbta 20 minutes, ne 22:32 UTC
Vėjas 12 kt iš Vakarų/Šiaurės Vakarų
Temperatūra 0°C
Drėgmė 100%
Slėgis 1017 hPa
Matomumas: 11.3 km
Apsiniaukę ne aukštis 200 ft
lietus

METAR: PALU 052232Z AUTO 30012KT 7SM -SHRA OVC002 00/00 A3003 RMK AO2 SLP167

Laikas: 14:52 (22:52 UTC)


TAF: trūkstamas

Orai ataskaitas ir orų prognozės (METAR, TAF).

turimą stotys yra geltonos ir raudonos taškus žemėlapyje.

Perkelti pele per norėdami pamatyti stoties vardą.

Tada spustelėkite, norėdami matyti oro stebėjimo ir prognozės.

Norėdami pakeisti žemėlapį: spustelėkite ant žalios mygtukų su juodo kryžiaus žemyn,; žalią mygtuką su brūkšneliu, jei norite nutolinti; arba žalių rodyklių gretimoms žemėlapius.


METAR-TAF: